createdAt,value
2023-01-29T00:02:11.631Z,71.79
2023-01-29T00:04:38.962Z,72.41
2023-01-29T00:07:05.811Z,73.54
2023-01-29T00:09:33.239Z,74.43
2023-01-29T00:12:00.344Z,75.46
2023-01-29T00:14:27.649Z,74.67
2023-01-29T00:16:54.959Z,74.65
2023-01-29T00:19:22.215Z,75.53
2023-01-29T00:21:49.119Z,76.13
2023-01-29T00:24:16.418Z,75.81
2023-01-29T00:26:43.420Z,75.75
2023-01-29T00:29:11.057Z,75.88
2023-01-29T00:31:38.229Z,75.52
2023-01-29T00:34:07.610Z,75.22
2023-01-29T00:36:34.744Z,75.66
2023-01-29T00:39:10.493Z,75.27
2023-01-29T00:41:56.349Z,75.17
2023-01-29T00:44:42.060Z,76.02
2023-01-29T00:47:27.319Z,75.48
2023-01-29T00:49:54.598Z,75.45
2023-01-29T00:52:24.963Z,75.87
2023-01-29T00:54:53.858Z,76.23
2023-01-29T00:57:21.028Z,75.93
2023-01-29T00:59:48.257Z,75.56
2023-01-29T01:02:34.502Z,75.67
2023-01-29T01:05:06.152Z,76.34
2023-01-29T01:07:34.136Z,76.21
2023-01-29T01:10:20.190Z,75.76
2023-01-29T01:12:53.567Z,74.93
2023-01-29T01:15:21.369Z,74.67
2023-01-29T01:17:49.086Z,75.13
2023-01-29T01:20:16.966Z,75.13
2023-01-29T01:22:43.987Z,74.58
2023-01-29T01:25:11.352Z,74.81
2023-01-29T01:27:41.314Z,74.98
2023-01-29T01:30:14.873Z,74.54
2023-01-29T01:32:42.737Z,74.49
2023-01-29T01:35:11.169Z,75.10
2023-01-29T01:37:38.717Z,75.45
2023-01-29T01:40:17.995Z,76.17
2023-01-29T01:42:48.441Z,75.20
2023-01-29T01:45:22.529Z,75.67
2023-01-29T01:47:53.999Z,75.73
2023-01-29T01:50:21.098Z,75.92
2023-01-29T01:52:53.097Z,75.67
2023-01-29T01:55:24.589Z,75.20
2023-01-29T01:57:56.986Z,75.10
2023-01-29T02:00:26.407Z,75.47
2023-01-29T02:03:13.761Z,75.98
2023-01-29T02:06:00.046Z,76.42
2023-01-29T02:08:54.314Z,76.45
2023-01-29T02:11:21.546Z,76.78
2023-01-29T02:13:53.812Z,76.27
2023-01-29T02:16:26.398Z,77.68
2023-01-29T02:18:55.410Z,77.26
2023-01-29T02:21:46.927Z,77.30
2023-01-29T02:25:09.830Z,77.36
2023-01-29T02:27:46.034Z,77.76
2023-01-29T02:30:28.328Z,78.57
2023-01-29T02:33:22.336Z,78.33
2023-01-29T02:35:59.759Z,78.54
2023-01-29T02:39:00.087Z,78.86
2023-01-29T02:41:35.050Z,78.44
2023-01-29T02:44:06.030Z,78.86
2023-01-29T02:46:44.975Z,79.11
2023-01-29T02:49:33.285Z,78.20
2023-01-29T02:52:09.747Z,78.57
2023-01-29T02:54:49.619Z,78.38
2023-01-29T02:57:30.372Z,78.68
2023-01-29T03:00:02.934Z,78.70
2023-01-29T03:02:44.010Z,77.84
2023-01-29T03:05:25.212Z,78.42
2023-01-29T03:07:58.724Z,78.99
2023-01-29T03:10:33.376Z,78.68
2023-01-29T03:13:22.549Z,78.22
2023-01-29T03:16:01.499Z,78.67
2023-01-29T03:18:46.278Z,78.85
2023-01-29T03:21:38.783Z,78.72
2023-01-29T03:24:27.725Z,78.76
2023-01-29T03:27:16.564Z,78.95
2023-01-29T03:30:04.257Z,78.67
2023-01-29T03:32:54.789Z,78.20
2023-01-29T03:35:39.610Z,77.65
2023-01-29T03:38:10.150Z,78.56
2023-01-29T03:40:52.682Z,78.40
2023-01-29T03:43:50.131Z,78.24
2023-01-29T03:46:40.125Z,78.84
2023-01-29T03:49:22.386Z,79.29
2023-01-29T03:52:02.769Z,79.04
2023-01-29T03:54:53.009Z,78.26
2023-01-29T03:57:56.100Z,77.55
2023-01-29T04:00:45.203Z,78.78
2023-01-29T04:03:26.593Z,79.70
2023-01-29T04:06:09.722Z,79.38
2023-01-29T04:08:54.005Z,78.73
2023-01-29T04:11:22.955Z,78.78
2023-01-29T04:13:51.488Z,77.83
2023-01-29T04:16:30.860Z,78.23
2023-01-29T04:19:34.786Z,78.28
2023-01-29T04:22:26.142Z,78.19
2023-01-29T04:24:53.372Z,78.54
2023-01-29T04:27:43.261Z,78.48
2023-01-29T04:30:22.148Z,78.90
2023-01-29T04:33:27.549Z,78.81
2023-01-29T04:36:11.195Z,79.11
2023-01-29T04:38:44.423Z,79.04
2023-01-29T04:41:24.403Z,79.33
2023-01-29T04:44:16.192Z,79.04
2023-01-29T04:47:03.969Z,79.20
2023-01-29T04:49:47.840Z,78.11
2023-01-29T04:52:17.533Z,78.24
2023-01-29T04:55:24.936Z,78.95
2023-01-29T04:58:13.587Z,78.39
2023-01-29T05:00:46.216Z,78.20
2023-01-29T05:03:15.886Z,78.47
2023-01-29T05:05:48.091Z,78.28
2023-01-29T05:08:19.435Z,78.59
2023-01-29T05:10:51.912Z,78.62
2023-01-29T05:13:22.185Z,78.45
2023-01-29T05:15:56.214Z,79.22
2023-01-29T05:18:23.514Z,79.02
2023-01-29T05:20:51.787Z,79.22
2023-01-29T05:23:21.684Z,79.23
2023-01-29T05:25:50.572Z,78.89
2023-01-29T05:28:18.534Z,78.87
2023-01-29T05:30:54.708Z,78.59
2023-01-29T05:33:27.634Z,79.01
2023-01-29T05:35:56.014Z,79.29
2023-01-29T05:38:23.756Z,79.25
2023-01-29T05:40:50.659Z,79.34
2023-01-29T05:43:23.223Z,78.79
2023-01-29T05:45:59.121Z,78.84
2023-01-29T05:48:28.910Z,79.19
2023-01-29T05:51:03.491Z,78.95
2023-01-29T05:53:32.186Z,78.87
2023-01-29T05:56:02.077Z,78.66
2023-01-29T05:58:33.825Z,78.76
2023-01-29T06:01:16.950Z,79.35
2023-01-29T06:03:44.648Z,78.87
2023-01-29T06:06:12.295Z,79.48
2023-01-29T06:08:39.695Z,78.94
2023-01-29T06:11:12.072Z,78.98
2023-01-29T06:13:39.636Z,79.20
2023-01-29T06:16:07.908Z,78.79
2023-01-29T06:18:36.716Z,78.43
2023-01-29T06:21:05.660Z,78.73
2023-01-29T06:23:33.165Z,78.91
2023-01-29T06:26:05.119Z,78.67
2023-01-29T06:28:32.495Z,78.98
2023-01-29T06:31:22.040Z,79.37
2023-01-29T06:33:51.276Z,78.92
2023-01-29T06:36:18.190Z,78.81
2023-01-29T06:38:45.421Z,78.90
2023-01-29T06:41:15.367Z,78.90
2023-01-29T06:43:44.873Z,78.80
2023-01-29T06:46:11.817Z,78.12
2023-01-29T06:48:39.301Z,78.43
2023-01-29T06:51:08.344Z,78.73
2023-01-29T06:53:37.905Z,78.34
2023-01-29T06:56:06.029Z,78.82
2023-01-29T06:58:33.561Z,78.50
2023-01-29T07:01:08.633Z,78.95
2023-01-29T07:03:54.087Z,78.81
2023-01-29T07:06:21.439Z,78.35
2023-01-29T07:08:48.356Z,78.14
2023-01-29T07:11:15.479Z,78.08
2023-01-29T07:13:42.537Z,78.42
2023-01-29T07:16:09.822Z,77.69
2023-01-29T07:18:37.507Z,77.50
2023-01-29T07:21:06.908Z,77.66
2023-01-29T07:23:35.010Z,77.25
2023-01-29T07:26:04.510Z,77.26
2023-01-29T07:28:31.738Z,77.05
2023-01-29T07:30:59.614Z,76.21
2023-01-29T07:33:27.068Z,76.55
2023-01-29T07:35:54.234Z,76.61
2023-01-29T07:38:21.146Z,75.67
2023-01-29T07:40:48.961Z,76.09
2023-01-29T07:43:16.841Z,76.57
2023-01-29T07:45:44.043Z,75.37
2023-01-29T07:48:12.938Z,75.74
2023-01-29T07:50:40.644Z,75.31
2023-01-29T07:53:15.293Z,75.70
2023-01-29T07:55:45.583Z,75.22
2023-01-29T07:58:12.730Z,75.46
2023-01-29T08:00:40.082Z,75.95
2023-01-29T08:03:13.409Z,75.97
2023-01-29T08:05:40.621Z,74.81
2023-01-29T08:08:08.075Z,74.61
2023-01-29T08:10:36.604Z,75.02
2023-01-29T08:13:04.507Z,74.96
2023-01-29T08:15:32.706Z,74.75
2023-01-29T08:18:01.715Z,74.30
2023-01-29T08:20:29.060Z,74.25
2023-01-29T08:23:03.700Z,74.45
2023-01-29T08:25:31.126Z,74.35
2023-01-29T08:27:59.546Z,74.81
2023-01-29T08:30:29.422Z,74.76
2023-01-29T08:32:57.307Z,74.67
2023-01-29T08:35:25.566Z,74.91
2023-01-29T08:37:59.723Z,74.54
2023-01-29T08:40:29.535Z,73.74
2023-01-29T08:43:02.687Z,74.00
2023-01-29T08:45:34.061Z,74.33
2023-01-29T08:48:01.143Z,74.39
2023-01-29T08:50:30.928Z,74.53
2023-01-29T08:52:59.732Z,74.78
2023-01-29T08:55:28.219Z,74.10
2023-01-29T08:57:57.392Z,73.91
2023-01-29T09:00:24.856Z,74.23
2023-01-29T09:02:52.185Z,73.83
2023-01-29T09:05:19.857Z,73.20
2023-01-29T09:07:47.002Z,73.33
2023-01-29T09:10:14.148Z,73.61
2023-01-29T09:12:41.079Z,73.64
2023-01-29T09:15:10.994Z,74.69
2023-01-29T09:17:38.003Z,74.48
2023-01-29T09:20:08.566Z,73.82
2023-01-29T09:22:35.756Z,73.09
2023-01-29T09:25:20.957Z,73.71
2023-01-29T09:27:48.152Z,73.35
2023-01-29T09:30:15.431Z,74.10
2023-01-29T09:32:53.037Z,73.94
2023-01-29T09:35:21.391Z,74.28
2023-01-29T09:37:49.589Z,75.34
2023-01-29T09:40:30.558Z,75.42
2023-01-29T09:43:06.735Z,76.33
2023-01-29T09:45:34.349Z,76.75
2023-01-29T09:48:05.863Z,77.09
2023-01-29T09:50:41.317Z,76.65
2023-01-29T09:53:17.554Z,76.45
2023-01-29T09:56:10.783Z,75.92
2023-01-29T09:58:42.549Z,74.86
2023-01-29T10:01:28.298Z,75.14
2023-01-29T10:04:18.507Z,74.98
2023-01-29T10:07:16.515Z,75.25
2023-01-29T10:09:49.399Z,75.01
2023-01-29T10:12:33.057Z,72.87
2023-01-29T10:15:13.872Z,73.16
2023-01-29T10:17:54.639Z,72.64
2023-01-29T10:20:34.224Z,74.14
2023-01-29T10:23:33.415Z,74.61
2023-01-29T10:26:01.736Z,75.82
2023-01-29T10:28:43.424Z,76.66
2023-01-29T10:31:15.096Z,77.49
2023-01-29T10:33:54.556Z,77.57
2023-01-29T10:36:47.633Z,78.25
2023-01-29T10:39:22.200Z,79.42
2023-01-29T10:42:11.511Z,80.97
2023-01-29T10:44:53.464Z,81.68
2023-01-29T10:47:35.970Z,81.93
2023-01-29T10:50:17.174Z,82.54
2023-01-29T10:53:17.106Z,82.28
2023-01-29T10:56:01.185Z,82.57
2023-01-29T10:58:41.849Z,83.16
2023-01-29T11:01:10.720Z,83.45
2023-01-29T11:03:38.553Z,83.79
2023-01-29T11:06:34.985Z,84.38
2023-01-29T11:09:17.186Z,84.98
2023-01-29T11:11:49.080Z,85.01
2023-01-29T11:14:25.144Z,86.20
2023-01-29T11:16:52.381Z,86.19
2023-01-29T11:19:37.349Z,85.46
2023-01-29T11:22:04.530Z,85.86
2023-01-29T11:24:31.914Z,84.88
2023-01-29T11:27:00.177Z,84.06
2023-01-29T11:29:30.099Z,84.39
2023-01-29T11:32:00.022Z,85.24
2023-01-29T11:34:33.635Z,84.83
2023-01-29T11:37:03.174Z,85.53
2023-01-29T11:39:32.291Z,84.92
2023-01-29T11:42:01.251Z,84.52
2023-01-29T11:44:41.694Z,84.05
2023-01-29T11:47:18.738Z,83.64
2023-01-29T11:49:52.585Z,84.26
2023-01-29T11:52:23.051Z,83.43
2023-01-29T11:55:15.923Z,83.14
2023-01-29T11:57:46.813Z,84.15
2023-01-29T12:00:20.370Z,84.00
2023-01-29T12:02:54.325Z,83.90
2023-01-29T12:05:25.516Z,84.35
2023-01-29T12:08:02.473Z,84.24
2023-01-29T12:10:36.079Z,84.43
2023-01-29T12:13:10.868Z,84.51
2023-01-29T12:15:39.841Z,85.28
2023-01-29T12:18:44.344Z,84.95
2023-01-29T12:21:30.126Z,85.04
2023-01-29T12:24:25.031Z,85.01
2023-01-29T12:27:01.106Z,85.17
2023-01-29T12:29:34.109Z,86.00
2023-01-29T12:32:25.809Z,85.78
2023-01-29T12:34:56.642Z,85.81
2023-01-29T12:37:48.577Z,85.85
2023-01-29T12:40:19.611Z,85.83
2023-01-29T12:42:51.601Z,86.91
2023-01-29T12:45:19.900Z,86.44
2023-01-29T12:47:57.506Z,85.59
2023-01-29T12:50:32.547Z,86.01
2023-01-29T12:53:07.389Z,86.23
2023-01-29T12:55:42.387Z,86.36
2023-01-29T12:58:22.821Z,86.38
2023-01-29T13:00:54.346Z,86.50
2023-01-29T13:03:21.585Z,86.44
2023-01-29T13:06:02.019Z,86.77
2023-01-29T13:08:41.678Z,87.32
2023-01-29T13:11:16.627Z,87.29
2023-01-29T13:13:54.104Z,87.66
2023-01-29T13:16:29.023Z,88.01
2023-01-29T13:19:00.413Z,88.80
2023-01-29T13:21:35.121Z,88.86
2023-01-29T13:24:12.783Z,89.75
2023-01-29T13:26:41.323Z,90.00
2023-01-29T13:29:30.130Z,90.39
2023-01-29T13:32:00.066Z,90.69
2023-01-29T13:34:45.090Z,91.15
2023-01-29T13:37:20.043Z,91.69
2023-01-29T13:39:52.696Z,91.44
2023-01-29T13:42:26.201Z,91.90
2023-01-29T13:44:57.579Z,92.56
2023-01-29T13:47:28.262Z,93.13
2023-01-29T13:50:29.745Z,92.78
2023-01-29T13:53:00.441Z,92.86
2023-01-29T13:55:37.280Z,93.07
2023-01-29T13:58:33.491Z,93.65
2023-01-29T14:01:01.632Z,94.19
2023-01-29T14:03:39.877Z,94.83
2023-01-29T14:06:38.287Z,95.55
2023-01-29T14:09:34.326Z,96.00
2023-01-29T14:12:01.737Z,96.07
2023-01-29T14:14:59.479Z,96.35
2023-01-29T14:17:28.629Z,97.02
2023-01-29T14:20:04.236Z,97.02
2023-01-29T14:22:33.871Z,96.86
2023-01-29T14:25:06.184Z,97.33
2023-01-29T14:27:35.602Z,97.67
2023-01-29T14:30:09.933Z,97.21
2023-01-29T14:32:40.539Z,97.67
2023-01-29T14:35:19.452Z,97.32
2023-01-29T14:37:52.900Z,97.21
2023-01-29T14:40:23.518Z,97.12
2023-01-29T14:43:04.149Z,97.06
2023-01-29T14:45:32.330Z,96.97
2023-01-29T14:48:11.744Z,97.00
2023-01-29T14:50:50.960Z,97.61
2023-01-29T14:53:34.134Z,97.91
2023-01-29T14:56:05.277Z,98.17
2023-01-29T14:58:42.407Z,98.25
2023-01-29T15:01:37.653Z,98.19
2023-01-29T15:04:13.723Z,98.25
2023-01-29T15:06:50.499Z,99.10
2023-01-29T15:09:41.985Z,98.76
2023-01-29T15:12:27.239Z,99.00
2023-01-29T15:15:02.984Z,98.52
2023-01-29T15:17:37.984Z,98.69
2023-01-29T15:20:35.878Z,98.84
2023-01-29T15:23:04.790Z,99.22
2023-01-29T15:25:48.130Z,98.80
2023-01-29T15:28:15.374Z,99.01
2023-01-29T15:30:43.818Z,99.31
2023-01-29T15:33:14.581Z,99.47
2023-01-29T15:35:43.321Z,99.47
2023-01-29T15:38:22.080Z,99.44
2023-01-29T15:41:03.879Z,99.93
2023-01-29T15:43:35.626Z,99.79
2023-01-29T15:46:07.519Z,99.78
2023-01-29T15:48:43.756Z,99.93
2023-01-29T15:51:20.479Z,100.00
2023-01-29T15:53:53.955Z,100.00
2023-01-29T15:56:28.218Z,100.00
2023-01-29T15:58:59.096Z,100.00
2023-01-29T16:01:27.831Z,100.00
2023-01-29T16:03:56.813Z,100.00
2023-01-29T16:06:26.153Z,100.00
2023-01-29T16:08:55.346Z,100.00
2023-01-29T16:11:23.000Z,100.00
2023-01-29T16:13:51.627Z,100.00
2023-01-29T16:16:25.428Z,100.00
2023-01-29T16:19:00.011Z,100.00
2023-01-29T16:21:39.825Z,100.00
2023-01-29T16:24:22.213Z,100.00
2023-01-29T16:26:52.516Z,100.00
2023-01-29T16:29:23.661Z,100.00
2023-01-29T16:31:54.820Z,100.00
2023-01-29T16:34:34.976Z,100.00
2023-01-29T16:37:06.059Z,100.00
2023-01-29T16:39:38.514Z,100.00
2023-01-29T16:42:20.251Z,100.00
2023-01-29T16:44:51.736Z,100.00
2023-01-29T16:47:37.294Z,100.00
2023-01-29T16:50:46.300Z,100.00
2023-01-29T16:53:23.424Z,100.00
2023-01-29T16:55:52.584Z,100.00
2023-01-29T16:58:24.976Z,100.00
2023-01-29T17:00:56.882Z,100.00
2023-01-29T17:03:27.292Z,100.00
2023-01-29T17:05:55.086Z,100.00
2023-01-29T17:08:37.083Z,100.00
2023-01-29T17:11:05.161Z,100.00
2023-01-29T17:13:36.859Z,100.00
2023-01-29T17:16:14.885Z,100.00
2023-01-29T17:18:42.343Z,100.00
2023-01-29T17:21:09.431Z,100.00
2023-01-29T17:23:36.744Z,100.00
2023-01-29T17:26:06.926Z,100.00
2023-01-29T17:28:34.274Z,100.00
2023-01-29T17:31:06.702Z,100.00
2023-01-29T17:33:37.291Z,100.00
2023-01-29T17:36:04.542Z,100.00
2023-01-29T17:38:32.624Z,100.00
2023-01-29T17:41:06.177Z,100.00
2023-01-29T17:43:34.236Z,100.00
2023-01-29T17:46:01.200Z,100.00
2023-01-29T17:48:30.029Z,100.00
2023-01-29T17:51:00.781Z,100.00
2023-01-29T17:53:43.354Z,100.00
2023-01-29T17:56:21.583Z,100.00
2023-01-29T17:58:48.762Z,100.00
2023-01-29T18:01:15.654Z,100.00
2023-01-29T18:03:42.935Z,100.00
2023-01-29T18:06:20.335Z,100.00
2023-01-29T18:08:47.461Z,100.00
2023-01-29T18:11:14.415Z,100.00
2023-01-29T18:13:42.023Z,100.00
2023-01-29T18:16:09.368Z,100.00
2023-01-29T18:18:36.822Z,100.00
2023-01-29T18:21:05.606Z,100.00
2023-01-29T18:23:32.916Z,100.00
2023-01-29T18:25:59.793Z,100.00
2023-01-29T18:28:27.139Z,100.00
2023-01-29T18:30:54.366Z,100.00
2023-01-29T18:33:24.190Z,100.00
2023-01-29T18:35:51.460Z,100.00
2023-01-29T18:38:18.589Z,100.00
2023-01-29T18:40:45.587Z,100.00
2023-01-29T18:43:14.798Z,100.00
2023-01-29T18:45:42.370Z,100.00
2023-01-29T18:48:09.569Z,100.00
2023-01-29T18:50:36.520Z,100.00
2023-01-29T18:53:04.451Z,100.00
2023-01-29T18:55:31.523Z,100.00
2023-01-29T18:58:28.225Z,100.00
2023-01-29T19:00:48.669Z,100.00
2023-01-29T19:03:16.559Z,100.00
2023-01-29T19:05:43.969Z,100.00
2023-01-29T19:08:11.273Z,100.00
2023-01-29T19:10:38.784Z,100.00
2023-01-29T19:13:06.767Z,100.00
2023-01-29T19:15:34.783Z,100.00
2023-01-29T19:18:02.720Z,100.00
2023-01-29T19:20:29.820Z,100.00
2023-01-29T19:22:57.097Z,100.00
2023-01-29T19:25:24.196Z,100.00
2023-01-29T19:27:51.742Z,100.00
2023-01-29T19:30:19.017Z,100.00
2023-01-29T19:32:46.362Z,100.00
2023-01-29T19:35:13.413Z,100.00
2023-01-29T19:37:40.807Z,100.00
2023-01-29T19:40:08.350Z,100.00
2023-01-29T19:42:37.553Z,100.00
2023-01-29T19:45:05.616Z,100.00
2023-01-29T19:47:33.863Z,100.00
2023-01-29T19:50:00.809Z,100.00
2023-01-29T19:52:49.746Z,100.00
2023-01-29T19:55:18.295Z,100.00
2023-01-29T19:57:46.038Z,100.00
2023-01-29T20:00:14.878Z,100.00
2023-01-29T20:02:42.048Z,99.90
2023-01-29T20:05:12.069Z,99.90
2023-01-29T20:07:41.191Z,99.74
2023-01-29T20:10:11.389Z,99.35
2023-01-29T20:12:39.133Z,99.11
2023-01-29T20:15:07.557Z,99.68
2023-01-29T20:17:34.832Z,99.75
2023-01-29T20:20:02.586Z,99.50
2023-01-29T20:22:29.963Z,99.18
2023-01-29T20:24:57.346Z,99.55
2023-01-29T20:27:24.875Z,99.71
2023-01-29T20:29:52.715Z,99.64
2023-01-29T20:32:19.977Z,99.93
2023-01-29T20:34:51.908Z,99.96
2023-01-29T20:37:20.032Z,100.00
2023-01-29T20:39:47.333Z,100.00
2023-01-29T20:42:14.750Z,100.00
2023-01-29T20:44:42.072Z,100.00
2023-01-29T20:47:09.372Z,100.00
2023-01-29T20:49:36.391Z,100.00
2023-01-29T20:52:03.904Z,100.00
2023-01-29T20:54:33.224Z,100.00
2023-01-29T20:57:00.693Z,100.00
2023-01-29T20:59:29.210Z,100.00
2023-01-29T21:01:56.629Z,100.00
2023-01-29T21:04:23.569Z,100.00
2023-01-29T21:06:50.963Z,100.00
2023-01-29T21:09:17.853Z,100.00
2023-01-29T21:11:45.185Z,100.00
2023-01-29T21:14:12.578Z,99.91
2023-01-29T21:16:40.638Z,99.95
2023-01-29T21:19:07.691Z,99.76
2023-01-29T21:21:34.960Z,100.00
2023-01-29T21:24:01.928Z,100.00
2023-01-29T21:26:29.264Z,100.00
2023-01-29T21:28:56.482Z,100.00
2023-01-29T21:31:23.918Z,100.00
2023-01-29T21:33:51.056Z,100.00
2023-01-29T21:36:18.416Z,100.00
2023-01-29T21:38:45.298Z,100.00
2023-01-29T21:41:12.658Z,100.00
2023-01-29T21:43:39.857Z,100.00
2023-01-29T21:46:12.062Z,100.00
2023-01-29T21:48:40.282Z,100.00
2023-01-29T21:51:07.704Z,100.00
2023-01-29T21:53:36.667Z,100.00
2023-01-29T21:56:05.702Z,100.00
2023-01-29T21:58:32.895Z,100.00
2023-01-29T22:01:36.451Z,100.00
2023-01-29T22:03:47.705Z,100.00
2023-01-29T22:06:15.493Z,100.00
2023-01-29T22:08:42.563Z,100.00
2023-01-29T22:11:10.272Z,100.00
2023-01-29T22:13:37.268Z,100.00
2023-01-29T22:16:06.072Z,100.00
2023-01-29T22:18:33.378Z,100.00
2023-01-29T22:21:04.714Z,100.00
2023-01-29T22:23:32.077Z,100.00
2023-01-29T22:26:04.003Z,100.00
2023-01-29T22:28:31.161Z,100.00
2023-01-29T22:31:02.891Z,100.00
2023-01-29T22:33:30.173Z,100.00
2023-01-29T22:35:57.685Z,100.00
2023-01-29T22:38:24.877Z,100.00
2023-01-29T22:40:53.535Z,100.00
2023-01-29T22:43:21.361Z,100.00
2023-01-29T22:45:48.958Z,100.00
2023-01-29T22:48:15.825Z,100.00
2023-01-29T22:50:43.071Z,100.00
2023-01-29T22:53:10.076Z,100.00
2023-01-29T22:55:37.207Z,100.00
2023-01-29T22:58:04.070Z,100.00
2023-01-29T23:00:31.280Z,100.00
2023-01-29T23:02:58.257Z,100.00
2023-01-29T23:05:25.458Z,100.00
2023-01-29T23:07:52.306Z,100.00
2023-01-29T23:10:19.822Z,100.00
2023-01-29T23:12:46.767Z,100.00
2023-01-29T23:15:14.089Z,100.00
2023-01-29T23:17:40.989Z,100.00
2023-01-29T23:20:08.846Z,100.00
2023-01-29T23:22:35.922Z,100.00
2023-01-29T23:25:03.453Z,100.00
2023-01-29T23:27:30.430Z,100.00
2023-01-29T23:29:57.586Z,100.00
2023-01-29T23:32:24.484Z,100.00
2023-01-29T23:34:51.699Z,100.00
2023-01-29T23:37:18.532Z,100.00
2023-01-29T23:39:45.747Z,100.00
2023-01-29T23:42:12.977Z,100.00
2023-01-29T23:44:40.370Z,100.00
2023-01-29T23:47:08.173Z,100.00
2023-01-29T23:49:35.518Z,100.00
2023-01-29T23:52:02.420Z,100.00
2023-01-29T23:54:29.552Z,100.00
2023-01-29T23:56:56.478Z,100.00
2023-01-29T23:59:27.684Z,100.00
